Time;durP1;ratioP1;P1;durP2;ratioP2;P2;SDS_P1;SDS_P2;PMS_P1;PMS_P2;Temp;Humidity;BMP_temperature;BMP_pressure;BME280_temperature;BME280_humidity;BME280_pressure;Samples;Min_cycle;Max_cycle;Signal;HPM_P1;HPM_P2
2022/03/14 00:01:15;;;;;;;0.00;0.00;;;5.10;99.90;;;;;;5012942;28;20026;-73
2022/03/14 00:03:55;;;;;;;0.00;0.00;;;5.10;99.90;;;;;;5017525;28;20042;-74
2022/03/14 00:06:21;;;;;;;0.00;0.00;;;5.10;99.90;;;;;;5018994;28;20105;-77
2022/03/14 00:08:47;;;;;;;;;;;5.10;99.90;;;;;;5024174;28;20021;-76
2022/03/14 00:11:16;;;;;;;0.00;0.00;;;5.00;99.90;;;;;;5030368;28;19917;-75
2022/03/14 00:13:44;;;;;;;0.00;0.00;;;5.10;99.90;;;;;;5016173;28;20082;-76
2022/03/14 00:16:13;;;;;;;0.00;0.00;;;5.00;99.90;;;;;;5016506;28;20014;-75
2022/03/14 00:18:42;;;;;;;0.00;0.00;;;5.10;99.90;;;;;;5007370;28;20043;-74
2022/03/14 00:21:10;;;;;;;0.00;0.00;;;5.00;99.90;;;;;;5014814;28;20040;-74
2022/03/14 00:23:36;;;;;;;0.00;0.00;;;5.00;99.90;;;;;;5019333;28;20030;-75
2022/03/14 00:26:06;;;;;;;0.00;0.00;;;5.00;99.90;;;;;;5015821;28;20018;-75
2022/03/14 00:28:31;;;;;;;0.00;0.00;;;5.10;99.90;;;;;;5014831;28;20023;-75
2022/03/14 00:30:58;;;;;;;0.00;0.00;;;5.00;99.90;;;;;;5000510;28;20090;-73
2022/03/14 00:33:23;;;;;;;;;;;4.80;99.90;;;;;;5016456;28;20015;-74
2022/03/14 00:35:50;;;;;;;0.00;0.00;;;4.80;99.90;;;;;;5018255;28;19937;-75
2022/03/14 00:38:16;;;;;;;0.00;0.00;;;4.70;99.90;;;;;;5017341;28;20018;-75
2022/03/14 00:40:42;;;;;;;0.00;0.00;;;4.60;99.90;;;;;;5017847;28;20037;-75
2022/03/14 00:43:08;;;;;;;0.00;0.00;;;4.60;99.90;;;;;;5017605;28;20091;-75
2022/03/14 00:45:34;;;;;;;0.00;0.00;;;4.60;99.90;;;;;;5017562;28;20033;-75
2022/03/14 00:48:00;;;;;;;0.00;0.00;;;4.60;99.90;;;;;;4999386;28;20023;-75
2022/03/14 00:50:26;;;;;;;0.00;0.00;;;4.50;99.90;;;;;;5018936;28;20042;-75
2022/03/14 00:52:52;;;;;;;0.00;0.00;;;4.50;99.90;;;;;;5016243;28;20010;-75
2022/03/14 00:55:19;;;;;;;0.00;0.00;;;4.50;99.90;;;;;;5017035;28;20041;-75
2022/03/14 00:57:44;;;;;;;0.00;0.00;;;4.40;99.90;;;;;;5018571;28;20094;-74
2022/03/14 01:00:11;;;;;;;0.00;0.00;;;4.40;99.90;;;;;;5017558;28;20022;-74
2022/03/14 01:02:37;;;;;;;0.00;0.00;;;4.40;99.90;;;;;;5008905;28;20033;-73
2022/03/14 01:05:03;;;;;;;0.00;0.00;;;4.30;99.90;;;;;;5023813;28;20054;-75
2022/03/14 01:07:29;;;;;;;0.00;0.00;;;4.40;99.90;;;;;;5027365;28;20057;-75
2022/03/14 01:09:54;;;;;;;0.00;0.00;;;4.40;99.90;;;;;;5017572;28;20034;-74
2022/03/14 01:12:20;;;;;;;0.00;0.00;;;4.30;99.90;;;;;;5016803;28;20103;-74
2022/03/14 01:14:46;;;;;;;0.00;0.00;;;4.30;99.90;;;;;;5007664;28;20011;-74
2022/03/14 01:17:11;;;;;;;;;;;4.50;99.90;;;;;;5005817;28;20070;-74
2022/03/14 01:19:38;;;;;;;0.00;0.00;;;4.40;99.90;;;;;;5017758;28;19910;-74
2022/03/14 01:22:10;;;;;;;0.00;0.00;;;4.30;99.90;;;;;;5014841;28;20041;-74
2022/03/14 01:24:38;;;;;;;0.00;0.00;;;4.30;99.90;;;;;;5016792;28;20014;-75
2022/03/14 01:27:06;;;;;;;0.00;0.00;;;4.30;99.90;;;;;;5018917;28;20015;-74
2022/03/14 01:29:34;;;;;;;0.00;0.00;;;4.20;99.90;;;;;;5014411;28;20030;-75
2022/03/14 01:32:03;;;;;;;0.00;0.00;;;4.20;99.90;;;;;;5017769;28;20025;-74
2022/03/14 01:34:29;;;;;;;0.00;0.00;;;4.20;99.90;;;;;;5019514;28;20050;-75
2022/03/14 01:36:55;;;;;;;0.00;0.00;;;4.10;99.90;;;;;;5019602;28;20010;-75
2022/03/14 01:39:21;;;;;;;0.00;0.00;;;4.10;99.90;;;;;;5016359;28;20034;-73
2022/03/14 01:41:47;;;;;;;0.00;0.00;;;4.10;99.90;;;;;;5018107;28;20026;-75
2022/03/14 01:44:12;;;;;;;;;;;4.10;99.90;;;;;;5018934;28;20031;-75
2022/03/14 01:46:38;;;;;;;0.00;0.00;;;4.00;99.90;;;;;;5016130;28;19897;-73
2022/03/14 01:49:04;;;;;;;0.00;0.00;;;4.00;99.90;;;;;;5015853;28;20037;-73
2022/03/14 01:51:30;;;;;;;0.00;0.00;;;4.00;99.90;;;;;;5016863;28;20073;-74
2022/03/14 01:53:57;;;;;;;0.00;0.00;;;3.90;99.90;;;;;;4998259;28;20023;-75
2022/03/14 01:56:23;;;;;;;0.00;0.00;;;3.90;99.90;;;;;;4991671;28;20014;-75
2022/03/14 01:58:52;;;;;;;0.00;0.00;;;3.90;99.90;;;;;;5014386;28;20010;-77
2022/03/14 02:01:19;;;;;;;0.00;0.00;;;3.80;99.90;;;;;;5015868;28;20086;-75
2022/03/14 02:03:47;;;;;;;0.00;0.00;;;3.80;99.90;;;;;;5016622;28;20018;-74
2022/03/14 02:06:13;;;;;;;0.00;0.00;;;3.80;99.90;;;;;;5012797;28;21103;-75
2022/03/14 02:08:39;;;;;;;0.00;0.00;;;3.80;99.90;;;;;;5015813;28;20023;-74
2022/03/14 02:11:05;;;;;;;0.00;0.00;;;3.80;99.90;;;;;;5016810;28;20011;-74
2022/03/14 02:13:31;;;;;;;0.00;0.00;;;3.70;99.90;;;;;;5016015;28;20017;-74
2022/03/14 02:15:57;;;;;;;0.00;0.00;;;3.70;99.90;;;;;;5007939;28;20031;-75
2022/03/14 02:18:23;;;;;;;0.00;0.00;;;3.70;99.90;;;;;;5000996;28;20022;-74
2022/03/14 02:20:49;;;;;;;0.00;0.00;;;3.70;99.90;;;;;;5015546;28;20124;-76
2022/03/14 02:23:15;;;;;;;0.00;0.00;;;3.70;99.90;;;;;;5016513;28;20022;-74
2022/03/14 02:25:49;;;;;;;0.00;0.00;;;3.60;99.90;;;;;;5015743;28;20094;-75
2022/03/14 02:28:15;;;;;;;0.00;0.00;;;3.70;99.90;;;;;;5005259;28;20026;-74
2022/03/14 02:30:41;;;;;;;;;;;3.60;99.90;;;;;;5016096;28;20141;-75
2022/03/14 02:33:07;;;;;;;0.00;0.00;;;3.60;99.90;;;;;;5019536;28;19898;-75
2022/03/14 02:35:34;;;;;;;0.00;0.00;;;3.60;99.90;;;;;;5017281;28;20256;-75
2022/03/14 02:37:59;;;;;;;0.00;0.00;;;3.60;99.90;;;;;;5019348;28;20023;-74
2022/03/14 02:40:25;;;;;;;0.00;0.00;;;3.70;99.90;;;;;;5018919;28;20049;-75
2022/03/14 02:42:51;;;;;;;0.00;0.00;;;3.60;99.90;;;;;;5026308;28;20031;-75
2022/03/14 02:45:17;;;;;;;0.00;0.00;;;3.50;99.90;;;;;;5001932;28;20019;-74
2022/03/14 02:47:43;;;;;;;;;;;3.50;99.90;;;;;;5030375;28;20096;-75
2022/03/14 02:50:09;;;;;;;0.00;0.00;;;3.50;99.90;;;;;;5019763;28;19921;-76
2022/03/14 02:52:35;;;;;;;0.00;0.00;;;3.50;99.90;;;;;;5020114;28;20027;-75
2022/03/14 02:55:01;;;;;;;0.00;0.00;;;3.50;99.90;;;;;;5027318;28;20171;-74
2022/03/14 02:57:28;;;;;;;0.00;0.00;;;3.40;99.90;;;;;;5016837;28;20086;-74
2022/03/14 02:59:57;;;;;;;0.00;0.00;;;3.40;99.90;;;;;;5025168;28;20029;-75
2022/03/14 03:02:24;;;;;;;0.00;0.00;;;3.40;99.90;;;;;;5029364;28;20017;-74
2022/03/14 03:04:51;;;;;;;0.00;0.00;;;3.30;99.90;;;;;;5025747;28;20018;-75
2022/03/14 03:07:19;;;;;;;0.00;0.00;;;3.20;99.90;;;;;;5021915;28;20082;-74
2022/03/14 03:09:45;;;;;;;0.00;0.00;;;3.20;99.90;;;;;;5028587;28;20029;-74
2022/03/14 03:12:13;;;;;;;0.00;0.00;;;3.20;99.90;;;;;;5022919;28;20006;-75
2022/03/14 03:14:39;;;;;;;0.00;0.00;;;3.10;99.90;;;;;;5014288;28;20041;-75
2022/03/14 03:17:06;;;;;;;0.00;0.00;;;3.10;99.90;;;;;;5021547;28;20006;-75
2022/03/14 03:19:32;;;;;;;0.00;0.00;;;3.00;99.90;;;;;;5023216;28;20030;-75
2022/03/14 03:21:58;;;;;;;;;;;2.90;99.90;;;;;;5001784;28;20038;-74
2022/03/14 03:24:24;;;;;;;0.00;0.00;;;2.90;99.90;;;;;;5019536;28;19921;-75
2022/03/14 03:26:50;;;;;;;;;;;2.90;99.90;;;;;;5005964;28;20125;-76
2022/03/14 03:29:15;;;;;;;0.00;0.00;;;3.10;99.90;;;;;;5028157;28;19909;-74
2022/03/14 03:31:41;;;;;;;0.00;0.00;;;3.10;99.90;;;;;;5019482;28;20054;-75
2022/03/14 03:34:07;;;;;;;0.00;0.00;;;3.00;99.90;;;;;;5020390;28;20047;-75
2022/03/14 03:36:33;;;;;;;0.00;0.00;;;3.00;99.90;;;;;;5031933;28;20025;-75
2022/03/14 03:39:00;;;;;;;0.00;0.00;;;3.00;99.90;;;;;;5023424;28;20049;-75
2022/03/14 03:41:26;;;;;;;0.00;0.00;;;3.00;99.90;;;;;;5004590;28;20030;-74
2022/03/14 03:43:52;;;;;;;0.00;0.00;;;3.00;99.90;;;;;;5017040;28;20061;-74
2022/03/14 03:46:18;;;;;;;0.00;0.00;;;3.00;99.90;;;;;;4995193;28;20031;-75
2022/03/14 03:48:44;;;;;;;0.00;0.00;;;3.00;99.90;;;;;;5017298;28;20117;-76
2022/03/14 03:51:09;;;;;;;0.00;0.00;;;3.00;99.90;;;;;;5022691;28;20099;-74
2022/03/14 03:53:35;;;;;;;;;;;3.00;99.90;;;;;;5027322;28;20161;-75
2022/03/14 03:56:01;;;;;;;0.00;0.00;;;2.90;99.90;;;;;;5000886;28;19906;-75
2022/03/14 03:58:27;;;;;;;0.00;0.00;;;2.90;99.90;;;;;;5018727;28;20018;-74
2022/03/14 04:00:53;;;;;;;;;;;2.80;99.90;;;;;;5008842;28;20097;-74
2022/03/14 04:03:20;;;;;;;0.00;0.00;;;2.80;99.90;;;;;;5016748;28;19918;-76
2022/03/14 04:05:46;;;;;;;0.00;0.00;;;2.80;99.90;;;;;;5022181;28;20052;-75
2022/03/14 04:08:13;;;;;;;0.00;0.00;;;2.90;99.90;;;;;;5017730;28;20030;-74
2022/03/14 04:10:41;;;;;;;0.00;0.00;;;2.80;99.90;;;;;;5018056;28;20018;-76
2022/03/14 04:13:07;;;;;;;0.00;0.00;;;3.00;99.90;;;;;;5018057;28;20078;-74
2022/03/14 04:15:40;;;;;;;;;;;2.90;99.90;;;;;;5005163;28;20062;-75
2022/03/14 04:18:07;;;;;;;0.00;0.00;;;3.00;99.90;;;;;;5018607;28;19918;-75
2022/03/14 04:20:32;;;;;;;0.00;0.00;;;2.90;99.90;;;;;;5017176;28;20030;-73
2022/03/14 04:22:58;;;;;;;0.00;0.00;;;2.90;99.90;;;;;;5016316;28;20102;-75
2022/03/14 04:25:24;;;;;;;0.00;0.00;;;2.90;99.90;;;;;;4999485;28;20023;-74
2022/03/14 04:27:50;;;;;;;0.00;0.00;;;2.80;99.90;;;;;;5025039;28;20022;-76
2022/03/14 04:30:16;;;;;;;;;;;2.80;99.90;;;;;;5016337;28;20034;-75
2022/03/14 04:32:42;;;;;;;0.00;0.00;;;2.80;99.90;;;;;;5016579;28;19928;-76
2022/03/14 04:35:08;;;;;;;0.00;0.00;;;2.70;99.90;;;;;;5015159;28;20015;-76
2022/03/14 04:37:34;;;;;;;0.00;0.00;;;2.60;99.90;;;;;;5016889;28;20026;-74
2022/03/14 04:40:00;;;;;;;0.00;0.00;;;2.60;99.90;;;;;;5017812;28;20026;-74
2022/03/14 04:42:25;;;;;;;0.00;0.00;;;2.60;99.90;;;;;;5000348;28;20050;-76
2022/03/14 04:44:52;;;;;;;0.00;0.00;;;2.50;99.90;;;;;;5032158;28;20038;-74
2022/03/14 04:47:18;;;;;;;0.00;0.00;;;2.60;99.90;;;;;;5030228;28;20057;-74
2022/03/14 04:49:44;;;;;;;0.00;0.00;;;2.50;99.90;;;;;;5000512;28;20019;-75
2022/03/14 04:52:13;;;;;;;;;;;2.50;99.90;;;;;;5020876;28;20086;-75
2022/03/14 04:54:39;;;;;;;0.00;0.00;;;2.50;99.90;;;;;;5030746;28;19905;-74
2022/03/14 04:57:06;;;;;;;0.00;0.00;;;2.50;99.90;;;;;;5014115;28;20018;-76
2022/03/14 04:59:32;;;;;;;;;;;2.40;99.90;;;;;;4999603;28;20054;-74
2022/03/14 05:01:58;;;;;;;0.00;0.00;;;2.40;99.90;;;;;;4998773;28;19918;-75
2022/03/14 05:04:24;;;;;;;0.00;0.00;;;2.40;99.90;;;;;;5017382;28;20029;-74
2022/03/14 05:06:49;;;;;;;0.00;0.00;;;2.30;99.90;;;;;;5017357;28;20065;-76
2022/03/14 05:09:35;;;;;;;0.00;0.00;;;2.30;99.90;;;;;;5015125;28;20026;-75
2022/03/14 05:12:00;;;;;;;0.00;0.00;;;2.30;99.90;;;;;;5002233;28;20095;-75
2022/03/14 05:14:26;;;;;;;0.00;0.00;;;2.20;99.90;;;;;;4998824;28;20284;-74
2022/03/14 05:16:55;;;;;;;0.00;0.00;;;2.20;99.90;;;;;;5012052;28;20044;-74
2022/03/14 05:19:21;;;;;;;0.00;0.00;;;2.20;99.90;;;;;;5026400;28;20081;-76
2022/03/14 05:21:46;;;;;;;;;;;2.20;99.90;;;;;;5018493;28;20056;-74
2022/03/14 05:24:12;;;;;;;0.00;0.00;;;2.20;99.90;;;;;;5022255;28;19921;-74
2022/03/14 05:26:37;;;;;;;;;;;2.20;99.90;;;;;;5015915;28;20035;-74
2022/03/14 05:29:05;;;;;;;0.00;0.00;;;2.30;99.90;;;;;;5013191;28;19910;-73
2022/03/14 05:31:30;;;;;;;0.00;0.00;;;2.40;99.90;;;;;;5016800;28;20385;-74
2022/03/14 05:33:56;;;;;;;0.00;0.00;;;2.40;99.90;;;;;;5014012;28;20022;-74
2022/03/14 05:36:22;;;;;;;;;;;2.40;99.90;;;;;;5027073;28;20022;-75
2022/03/14 05:38:48;;;;;;;0.00;0.00;;;2.60;99.90;;;;;;5026794;28;19902;-76
2022/03/14 05:41:14;;;;;;;0.00;0.00;;;2.70;99.90;;;;;;5004803;28;20085;-74
2022/03/14 05:43:40;;;;;;;0.00;0.00;;;2.90;99.90;;;;;;5015987;28;20037;-74
2022/03/14 05:46:06;;;;;;;;;;;2.90;99.90;;;;;;5000237;28;20097;-75
2022/03/14 05:48:35;;;;;;;0.00;0.00;;;2.90;99.90;;;;;;5014985;28;19936;-76
2022/03/14 05:51:05;;;;;;;0.00;0.00;;;2.80;99.90;;;;;;5019707;28;20022;-74
2022/03/14 05:53:31;;;;;;;0.00;0.00;;;2.70;99.90;;;;;;4983512;28;20038;-75
2022/03/14 05:55:57;;;;;;;;;;;2.70;99.90;;;;;;5005919;28;20024;-75
2022/03/14 05:58:23;;;;;;;0.00;0.00;;;2.60;99.90;;;;;;5010242;28;19922;-76
2022/03/14 06:00:48;;;;;;;0.00;0.00;;;2.60;99.90;;;;;;5017065;28;20072;-76
2022/03/14 06:03:15;;;;;;;;;;;2.50;99.90;;;;;;5014813;28;20045;-75
2022/03/14 06:05:41;;;;;;;0.00;0.00;;;2.60;99.90;;;;;;4999955;28;19944;-74
2022/03/14 06:08:06;;;;;;;0.00;0.00;;;2.60;99.90;;;;;;5009466;28;20022;-77
2022/03/14 06:10:33;;;;;;;;;;;2.80;99.90;;;;;;5014101;28;20027;-74
2022/03/14 06:12:58;;;;;;;0.00;0.00;;;2.90;99.90;;;;;;5045184;28;19902;-73
2022/03/14 06:15:24;;;;;;;0.00;0.00;;;2.90;99.90;;;;;;5018197;28;20019;-73
2022/03/14 06:17:50;;;;;;;;;;;2.70;99.90;;;;;;5015642;28;20038;-75
2022/03/14 06:20:16;;;;;;;0.00;0.00;;;2.60;99.90;;;;;;5009454;28;19905;-75
2022/03/14 06:22:46;;;;;;;0.00;0.00;;;2.60;99.90;;;;;;5026988;28;20021;-76
2022/03/14 06:25:13;;;;;;;0.00;0.00;;;2.40;99.90;;;;;;5010908;28;20023;-76
2022/03/14 06:27:39;;;;;;;0.00;0.00;;;2.30;99.90;;;;;;5021645;28;20049;-74
2022/03/14 06:30:07;;;;;;;0.00;0.00;;;2.30;99.90;;;;;;5020922;28;20011;-75
2022/03/14 06:32:37;;;;;;;0.00;0.00;;;2.50;99.90;;;;;;5017420;28;20025;-74
2022/03/14 06:35:08;;;;;;;0.00;0.00;;;2.60;99.90;;;;;;5015932;28;20015;-74
2022/03/14 06:37:34;;;;;;;0.00;0.00;;;2.60;99.90;;;;;;5019327;28;20041;-75
2022/03/14 06:40:00;;;;;;;0.00;0.00;;;2.50;99.90;;;;;;5012322;28;20034;-75
2022/03/14 06:42:26;;;;;;;0.00;0.00;;;2.40;99.90;;;;;;5037422;28;20081;-74
2022/03/14 06:44:52;;;;;;;0.00;0.00;;;2.50;99.90;;;;;;5012438;28;20046;-74
2022/03/14 06:47:18;;;;;;;0.00;0.00;;;2.50;99.90;;;;;;5020958;28;20027;-74
2022/03/14 06:49:45;;;;;;;0.00;0.00;;;2.70;99.90;;;;;;5018914;28;20105;-74
2022/03/14 06:52:15;;;;;;;0.00;0.00;;;2.70;99.90;;;;;;5027874;28;20042;-75
2022/03/14 06:54:41;;;;;;;0.00;0.00;;;2.70;99.90;;;;;;5022717;28;20033;-75
2022/03/14 06:57:08;;;;;;;0.00;0.00;;;2.70;99.90;;;;;;5027079;28;20031;-73
2022/03/14 06:59:35;;;;;;;0.00;0.00;;;2.80;99.90;;;;;;5018641;28;20030;-75
2022/03/14 07:02:02;;;;;;;0.00;0.00;;;2.70;99.90;;;;;;5015689;28;20023;-76
2022/03/14 07:04:27;;;;;;;0.00;0.00;;;2.60;99.90;;;;;;5019379;28;20030;-77
2022/03/14 07:06:53;;;;;;;0.00;0.00;;;2.60;99.90;;;;;;5015651;28;20496;-75
2022/03/14 07:09:20;;;;;;;0.00;0.00;;;2.60;99.90;;;;;;4988602;28;20042;-75
2022/03/14 07:11:51;;;;;;;0.00;0.00;;;2.60;99.90;;;;;;5000340;28;20094;-75
2022/03/14 07:14:21;;;;;;;0.00;0.00;;;2.60;99.90;;;;;;5012498;28;20031;-75
2022/03/14 07:16:48;;;;;;;0.00;0.00;;;2.50;99.90;;;;;;5017338;28;20026;-76
2022/03/14 07:19:14;;;;;;;0.00;0.00;;;2.50;99.90;;;;;;5012730;28;20080;-77
2022/03/14 07:21:40;;;;;;;0.00;0.00;;;2.40;99.90;;;;;;5016091;28;20034;-77
2022/03/14 07:24:06;;;;;;;0.00;0.00;;;2.40;99.90;;;;;;5018454;28;20018;-76
2022/03/14 07:26:32;;;;;;;0.00;0.00;;;2.40;99.90;;;;;;5017774;28;20027;-75
2022/03/14 07:28:57;;;;;;;0.00;0.00;;;2.50;99.90;;;;;;5004661;28;20140;-74
2022/03/14 07:31:24;;;;;;;0.00;0.00;;;2.50;99.90;;;;;;5016896;28;20054;-76
2022/03/14 07:33:50;;;;;;;0.00;0.00;;;2.50;99.90;;;;;;5021014;28;20029;-76
2022/03/14 07:36:16;;;;;;;;;;;2.50;99.90;;;;;;5005673;28;20021;-75
2022/03/14 07:38:42;;;;;;;0.00;0.00;;;2.60;99.90;;;;;;5012121;28;19902;-75
2022/03/14 07:41:11;;;;;;;;;;;2.60;99.90;;;;;;5025233;28;20033;-76
2022/03/14 07:43:40;;;;;;;0.00;0.00;;;2.60;99.90;;;;;;5016862;28;19910;-77
2022/03/14 07:46:07;;;;;;;0.00;0.00;;;2.60;99.90;;;;;;5000242;28;20014;-75
2022/03/14 07:48:34;;;;;;;;;;;2.60;99.90;;;;;;5020521;28;20022;-75
2022/03/14 07:50:59;;;;;;;0.05;0.05;;;2.60;99.90;;;;;;5020059;28;19902;-77
2022/03/14 07:53:25;;;;;;;;;;;2.60;99.90;;;;;;5005807;28;20052;-75
2022/03/14 07:55:52;;;;;;;0.00;0.00;;;2.70;99.90;;;;;;5014325;28;19933;-75
2022/03/14 07:58:18;;;;;;;0.00;0.00;;;2.50;99.90;;;;;;5016136;28;20042;-75
2022/03/14 08:00:44;;;;;;;;;;;2.60;99.90;;;;;;5016545;28;20026;-75
2022/03/14 08:03:09;;;;;;;0.00;0.00;;;2.60;99.90;;;;;;5018444;28;19918;-76
2022/03/14 08:05:35;;;;;;;;;;;2.70;99.90;;;;;;5011531;28;20038;-79
2022/03/14 08:08:02;;;;;;;0.00;0.00;;;2.80;99.90;;;;;;5015022;28;19909;-75
2022/03/14 08:10:29;;;;;;;0.00;0.00;;;2.80;99.90;;;;;;5014323;28;20025;-77
2022/03/14 08:12:57;;;;;;;0.00;0.00;;;2.90;99.90;;;;;;5013245;28;20030;-76
2022/03/14 08:15:25;;;;;;;0.00;0.00;;;3.10;99.90;;;;;;5012150;28;20033;-76
2022/03/14 08:17:54;;;;;;;0.00;0.00;;;3.20;99.90;;;;;;5012955;28;20025;-74
2022/03/14 08:20:21;;;;;;;0.00;0.00;;;3.30;99.90;;;;;;5021142;28;20035;-74
2022/03/14 08:22:47;;;;;;;0.00;0.00;;;3.40;99.90;;;;;;5016120;28;20083;-73
2022/03/14 08:25:14;;;;;;;0.00;0.00;;;3.50;99.90;;;;;;5018011;28;20022;-77
2022/03/14 08:27:39;;;;;;;0.00;0.00;;;3.60;99.90;;;;;;5017561;28;20026;-76
2022/03/14 08:30:06;;;;;;;0.00;0.00;;;3.60;99.90;;;;;;5016851;28;20022;-78
2022/03/14 08:32:34;;;;;;;0.00;0.00;;;3.70;99.90;;;;;;5028844;28;20018;-75
2022/03/14 08:35:05;;;;;;;0.00;0.00;;;4.00;99.90;;;;;;5011585;28;20019;-76
2022/03/14 08:37:30;;;;;;;0.00;0.00;;;4.30;99.90;;;;;;5013699;28;20015;-77
2022/03/14 08:39:57;;;;;;;0.00;0.00;;;4.50;99.90;;;;;;5015612;28;20053;-77
2022/03/14 08:42:23;;;;;;;0.00;0.00;;;4.60;99.90;;;;;;5014570;28;20014;-75
2022/03/14 08:44:48;;;;;;;0.00;0.00;;;4.70;99.90;;;;;;5016695;28;20026;-76
2022/03/14 08:47:14;;;;;;;0.00;0.00;;;4.80;99.90;;;;;;5014033;28;20055;-75
2022/03/14 08:49:41;;;;;;;0.00;0.00;;;5.10;99.90;;;;;;4999037;28;20110;-76
2022/03/14 08:52:06;;;;;;;0.00;0.00;;;5.20;99.90;;;;;;5024468;28;20026;-74
2022/03/14 08:54:32;;;;;;;0.00;0.00;;;5.40;99.90;;;;;;5021968;28;20054;-78
2022/03/14 08:56:58;;;;;;;0.00;0.00;;;5.50;99.90;;;;;;5017340;28;20022;-77
2022/03/14 08:59:24;;;;;;;0.00;0.00;;;5.60;99.90;;;;;;5015778;28;20018;-75
2022/03/14 09:01:50;;;;;;;0.00;0.00;;;5.70;99.90;;;;;;5015101;28;20023;-77
2022/03/14 09:04:16;;;;;;;0.00;0.00;;;5.90;99.90;;;;;;5017299;28;20014;-77
2022/03/14 09:06:43;;;;;;;0.00;0.00;;;6.00;99.90;;;;;;5016606;28;20035;-76
2022/03/14 09:09:08;;;;;;;0.00;0.00;;;6.10;99.90;;;;;;5016805;28;20014;-76
2022/03/14 09:11:34;;;;;;;0.00;0.00;;;6.20;99.90;;;;;;5018894;28;20026;-76
2022/03/14 09:14:00;;;;;;;0.00;0.00;;;6.30;99.90;;;;;;5009462;28;20062;-78
2022/03/14 09:16:26;;;;;;;0.00;0.00;;;6.40;99.90;;;;;;5004881;28;20037;-77
2022/03/14 09:18:53;;;;;;;0.00;0.00;;;6.40;99.90;;;;;;5013986;28;20023;-75
2022/03/14 09:21:19;;;;;;;0.00;0.00;;;6.40;99.90;;;;;;5012574;28;20033;-77
2022/03/14 09:23:48;;;;;;;0.00;0.00;;;6.40;99.90;;;;;;5010728;28;20036;-78
2022/03/14 09:26:13;;;;;;;0.00;0.00;;;6.50;99.90;;;;;;5025114;28;20022;-75
2022/03/14 09:28:44;;;;;;;0.00;0.00;;;6.50;99.90;;;;;;5028425;28;20111;-75
2022/03/14 09:31:13;;;;;;;0.00;0.00;;;6.60;99.90;;;;;;5015665;28;20089;-75
2022/03/14 09:33:39;;;;;;;0.00;0.00;;;6.70;99.90;;;;;;5015059;28;20022;-75
2022/03/14 09:36:06;;;;;;;;;;;6.90;99.90;;;;;;5017755;28;20062;-76
2022/03/14 09:38:32;;;;;;;0.00;0.00;;;7.10;99.90;;;;;;5015233;28;19917;-76
2022/03/14 09:41:03;;;;;;;0.00;0.00;;;7.20;99.90;;;;;;5006634;28;20038;-75
2022/03/14 09:43:37;;;;;;;0.00;0.00;;;7.50;99.90;;;;;;5013453;28;20061;-76
2022/03/14 09:46:05;;;;;;;0.00;0.00;;;7.70;99.90;;;;;;5027721;28;20022;-77
2022/03/14 09:48:36;;;;;;;0.00;0.00;;;8.00;99.90;;;;;;5020020;28;20009;-76
2022/03/14 09:51:04;;;;;;;0.00;0.00;;;8.20;99.90;;;;;;5026273;28;20045;-76
2022/03/14 09:53:30;;;;;;;0.00;0.00;;;8.40;99.90;;;;;;5016933;28;20077;-77
2022/03/14 09:55:56;;;;;;;0.00;0.00;;;8.50;99.90;;;;;;5028034;28;20037;-76
2022/03/14 09:58:22;;;;;;;0.00;0.00;;;8.60;99.90;;;;;;5014090;28;20049;-75
2022/03/14 10:00:49;;;;;;;0.00;0.00;;;8.90;99.90;;;;;;5015141;28;20034;-76
2022/03/14 10:03:18;;;;;;;0.00;0.00;;;9.00;99.90;;;;;;5017538;28;20145;-76
2022/03/14 10:05:44;;;;;;;0.00;0.00;;;9.20;99.90;;;;;;5014742;28;20090;-75
2022/03/14 10:08:13;;;;;;;0.00;0.00;;;9.30;99.90;;;;;;5000617;28;20058;-76
2022/03/14 10:10:40;;;;;;;0.00;0.00;;;9.50;99.90;;;;;;4996466;28;20022;-76
2022/03/14 10:13:07;;;;;;;0.00;0.00;;;9.70;99.90;;;;;;5016340;28;20007;-74
2022/03/14 10:15:37;;;;;;;0.00;0.00;;;9.70;99.90;;;;;;4985159;28;20014;-76
2022/03/14 10:18:39;;;;;;;0.00;0.00;;;9.60;99.90;;;;;;4998697;28;21072;-76
2022/03/14 10:21:06;;;;;;;0.00;0.00;;;9.80;99.90;;;;;;4988664;28;20046;-76
2022/03/14 10:23:33;;;;;;;0.00;0.00;;;10.00;99.90;;;;;;5015079;28;20019;-75
2022/03/14 10:26:00;;;;;;;0.00;0.00;;;10.20;99.90;;;;;;5024980;28;20021;-75
2022/03/14 10:28:30;;;;;;;0.00;0.00;;;10.30;99.90;;;;;;5005402;28;20026;-76
2022/03/14 10:31:00;;;;;;;0.00;0.00;;;10.40;99.90;;;;;;4994544;28;20031;-76
2022/03/14 10:33:27;;;;;;;0.00;0.00;;;10.60;99.90;;;;;;5022209;28;20045;-76
2022/03/14 10:35:55;;;;;;;0.00;0.00;;;10.40;99.90;;;;;;5017184;28;20053;-76
2022/03/14 10:38:21;;;;;;;0.00;0.00;;;10.40;99.90;;;;;;5016113;28;20014;-76
2022/03/14 10:40:48;;;;;;;0.00;0.00;;;10.40;99.90;;;;;;5013406;28;20050;-75
2022/03/14 10:43:35;;;;;;;0.00;0.00;;;10.50;99.90;;;;;;4998549;28;20014;-75
2022/03/14 10:46:04;;;;;;;0.00;0.00;;;10.70;99.90;;;;;;5011837;28;20023;-77
2022/03/14 10:48:43;;;;;;;0.00;0.00;;;10.70;99.90;;;;;;5013776;28;20077;-76
2022/03/14 10:51:11;;;;;;;0.00;0.00;;;10.60;99.90;;;;;;5008046;28;20014;-75
2022/03/14 10:53:44;;;;;;;0.00;0.00;;;10.50;99.90;;;;;;5015075;28;20026;-77
2022/03/14 10:56:10;;;;;;;0.00;0.00;;;10.50;99.90;;;;;;5015869;28;20048;-77
2022/03/14 10:58:37;;;;;;;0.00;0.00;;;10.50;99.90;;;;;;5009941;28;20015;-75
2022/03/14 11:01:07;;;;;;;0.00;0.00;;;10.50;99.90;;;;;;5018222;28;20137;-78
2022/03/14 11:03:39;;;;;;;0.00;0.00;;;10.60;99.90;;;;;;5033839;28;20052;-77
2022/03/14 11:06:14;;;;;;;0.00;0.00;;;10.80;99.90;;;;;;5019252;28;20116;-76
2022/03/14 11:08:48;;;;;;;0.00;0.00;;;11.00;99.90;;;;;;5028920;28;20021;-77
2022/03/14 11:11:20;;;;;;;0.00;0.00;;;11.20;99.90;;;;;;5026154;28;20045;-77
2022/03/14 11:13:51;;;;;;;0.00;0.00;;;11.20;99.90;;;;;;5022654;28;20022;-76
2022/03/14 11:16:23;;;;;;;0.00;0.00;;;11.20;99.90;;;;;;5024131;28;20019;-75
2022/03/14 11:18:51;;;;;;;0.00;0.00;;;11.30;99.90;;;;;;5034667;28;20045;-77
2022/03/14 11:21:19;;;;;;;0.00;0.00;;;11.30;99.90;;;;;;5029704;28;20026;-76
2022/03/14 11:23:47;;;;;;;0.00;0.00;;;11.30;99.90;;;;;;5020091;28;20014;-77
2022/03/14 11:26:15;;;;;;;0.00;0.00;;;11.30;99.90;;;;;;5021133;28;20113;-76
2022/03/14 11:28:44;;;;;;;0.00;0.00;;;11.30;99.90;;;;;;5034509;28;20010;-77
2022/03/14 11:31:09;;;;;;;0.00;0.00;;;11.30;99.90;;;;;;5018798;28;20019;-76
2022/03/14 11:33:35;;;;;;;0.00;0.00;;;11.40;99.90;;;;;;5019609;28;20091;-75
2022/03/14 11:36:03;;;;;;;0.00;0.00;;;11.40;99.90;;;;;;5019537;28;20038;-76
2022/03/14 11:38:30;;;;;;;0.00;0.00;;;11.50;99.90;;;;;;5010434;28;20025;-75
2022/03/14 11:40:57;;;;;;;0.00;0.00;;;11.70;99.90;;;;;;5036181;28;20046;-75
2022/03/14 11:43:24;;;;;;;0.00;0.00;;;11.90;99.90;;;;;;5017639;28;20052;-76
2022/03/14 11:45:51;;;;;;;0.00;0.00;;;12.10;99.90;;;;;;5023694;28;20042;-75
2022/03/14 11:48:19;;;;;;;0.00;0.00;;;12.10;99.90;;;;;;5020789;28;20068;-77
2022/03/14 11:51:06;;;;;;;0.00;0.00;;;12.20;99.90;;;;;;5020827;28;20042;-76
2022/03/14 11:53:34;;;;;;;0.00;0.00;;;12.40;99.90;;;;;;5017296;28;20011;-75
2022/03/14 11:56:06;;;;;;;0.00;0.00;;;12.50;99.90;;;;;;5013598;28;20026;-76
2022/03/14 11:58:34;;;;;;;0.00;0.00;;;12.70;99.90;;;;;;5016565;28;20027;-76
2022/03/14 12:01:16;;;;;;;0.00;0.00;;;12.80;99.90;;;;;;5014933;28;20073;-76
2022/03/14 12:03:46;;;;;;;0.00;0.00;;;12.70;99.90;;;;;;5021431;28;20029;-76
2022/03/14 12:06:12;;;;;;;0.00;0.00;;;12.70;99.90;;;;;;5020024;28;20118;-76
2022/03/14 12:08:38;;;;;;;0.00;0.00;;;12.50;99.90;;;;;;5017731;28;20050;-76
2022/03/14 12:11:35;;;;;;;0.00;0.00;;;12.50;99.90;;;;;;5015347;28;20015;-76
2022/03/14 12:14:03;;;;;;;0.00;0.00;;;12.60;99.90;;;;;;5023480;28;20026;-76
2022/03/14 12:16:40;;;;;;;0.00;0.00;;;12.50;99.90;;;;;;5009605;28;20107;-77
2022/03/14 12:19:25;;;;;;;0.00;0.00;;;12.70;99.90;;;;;;5023014;28;20026;-77
2022/03/14 12:21:54;;;;;;;0.00;0.00;;;12.70;99.90;;;;;;5009580;28;20038;-76
2022/03/14 12:24:40;;;;;;;0.00;0.00;;;12.80;99.90;;;;;;5021854;28;20042;-75
2022/03/14 12:27:21;;;;;;;0.00;0.00;;;13.00;99.90;;;;;;4994404;28;20037;-77
2022/03/14 12:29:49;;;;;;;0.00;0.00;;;13.10;99.90;;;;;;5027828;28;20010;-76
2022/03/14 12:32:42;;;;;;;0.00;0.00;;;13.00;99.90;;;;;;5002888;28;20029;-76
2022/03/14 12:35:21;;;;;;;0.00;0.00;;;12.80;99.90;;;;;;5007745;28;20027;-76
2022/03/14 12:37:50;;;;;;;0.00;0.00;;;12.80;99.90;;;;;;5024376;28;20041;-77
2022/03/14 12:40:21;;;;;;;0.00;0.00;;;13.00;99.90;;;;;;5013702;28;20029;-77
2022/03/14 12:42:52;;;;;;;0.00;0.00;;;13.30;99.90;;;;;;5000996;28;20026;-76
2022/03/14 12:45:35;;;;;;;0.00;0.00;;;13.50;99.90;;;;;;5026392;28;20018;-76
2022/03/14 12:48:12;;;;;;;0.00;0.00;;;13.70;99.90;;;;;;5008601;28;20018;-76
2022/03/14 12:50:50;;;;;;;0.00;0.00;;;13.70;99.90;;;;;;5001797;28;20023;-76
2022/03/14 12:53:36;;;;;;;0.00;0.00;;;13.40;99.90;;;;;;4999884;28;20050;-76
2022/03/14 12:56:10;;;;;;;0.00;0.00;;;13.30;99.90;;;;;;5012956;28;20038;-76
2022/03/14 12:58:35;;;;;;;0.00;0.00;;;13.20;99.90;;;;;;5017094;28;20018;-76
2022/03/14 13:01:03;;;;;;;0.00;0.00;;;13.10;99.90;;;;;;5019077;28;20046;-76
2022/03/14 13:03:34;;;;;;;0.00;0.00;;;13.20;99.90;;;;;;4999234;28;20026;-75
2022/03/14 13:06:01;;;;;;;0.00;0.00;;;13.50;99.90;;;;;;5019134;28;20061;-77